Time;durP1;ratioP1;P1;durP2;ratioP2;P2;SDS_P1;SDS_P2;PMS_P1;PMS_P2;Temp;Humidity;BMP_temperature;BMP_pressure;BME280_temperature;BME280_humidity;BME280_pressure;Samples;Min_cycle;Max_cycle;Signal;HPM_P1;HPM_P2
2023/08/15 00:00:06;;;;;;;14.82;4.63;;;;;;;25.60;nan;95515.22;5070855;28;20530;-80
2023/08/15 00:02:31;;;;;;;9.40;4.47;;;;;;;25.37;nan;95479.06;5072500;28;20138;-82
2023/08/15 00:04:56;;;;;;;6.85;4.55;;;;;;;25.43;nan;95472.19;5070971;28;20132;-82
2023/08/15 00:07:22;;;;;;;6.93;4.40;;;;;;;25.57;nan;95505.03;5071821;28;20060;-82
2023/08/15 00:09:47;;;;;;;7.75;4.03;;;;;;;25.02;nan;95427.66;5071908;28;20036;-82
2023/08/15 00:12:13;;;;;;;11.50;4.78;;;;;;;25.25;nan;95469.16;5072699;28;20033;-82
2023/08/15 00:14:38;;;;;;;11.50;4.85;;;;;;;25.31;nan;95477.81;5071621;28;20399;-82
2023/08/15 00:17:04;;;;;;;9.35;4.70;;;;;;;25.19;nan;95457.03;5051885;28;20048;-82
2023/08/15 00:19:29;;;;;;;8.98;4.78;;;;;;;24.96;nan;95410.06;5072979;28;20036;-82
2023/08/15 00:21:54;;;;;;;6.60;4.50;;;;;;;25.26;nan;95453.66;5072307;28;20037;-82
2023/08/15 00:24:20;;;;;;;7.72;4.53;;;;;;;25.45;nan;95485.41;5070533;28;20418;-82
2023/08/15 00:26:45;;;;;;;8.18;4.93;;;;;;;24.70;nan;95366.56;5069796;28;20499;-82
2023/08/15 00:29:10;;;;;;;9.18;5.53;;;;;;;25.19;nan;95434.53;5072249;28;20043;-82
2023/08/15 00:31:36;;;;;;;7.57;4.45;;;;;;;25.18;nan;95477.16;5070725;28;20094;-82
2023/08/15 00:34:01;;;;;;;6.75;4.50;;;;;;;25.06;nan;95458.34;5070273;28;20086;-82
2023/08/15 00:36:27;;;;;;;10.25;5.47;;;;;;;25.27;nan;95471.50;5070199;28;20037;-82
2023/08/15 00:38:52;;;;;;;9.82;5.20;;;;;;;25.07;nan;95446.34;5069899;28;20097;-82
2023/08/15 00:41:18;;;;;;;7.57;4.80;;;;;;;24.83;nan;95455.53;5071421;28;20070;-82
2023/08/15 00:43:43;;;;;;;9.57;4.97;;;;;;;24.63;nan;95418.72;5072116;28;20482;-82
2023/08/15 00:46:10;;;;;;;9.95;5.72;;;;;;;24.92;nan;95458.84;5070378;28;20450;-82
2023/08/15 00:48:36;;;;;;;10.40;5.65;;;;;;;24.84;nan;95440.06;5071873;28;20036;-82
2023/08/15 00:51:02;;;;;;;13.63;5.20;;;;;;;24.67;nan;95432.34;5070292;28;20040;-82
2023/08/15 00:53:30;;;;;;;11.80;5.47;;;;;;;24.63;nan;95451.25;5071635;28;20040;-82
2023/08/15 00:55:57;;;;;;;14.45;5.63;;;;;;;24.66;nan;95452.47;5070001;28;20124;-82
2023/08/15 00:58:23;;;;;;;9.20;5.45;;;;;;;23.91;nan;95341.66;5071443;28;20033;-82
2023/08/15 01:00:50;;;;;;;17.95;5.43;;;;;;;24.34;nan;95420.03;5070305;28;20032;-82
2023/08/15 01:03:16;;;;;;;13.40;5.63;;;;;;;24.36;nan;95414.28;5070368;28;20119;-82
2023/08/15 01:05:42;;;;;;;13.00;5.72;;;;;;;24.39;nan;95422.50;5070244;28;20173;-82
2023/08/15 01:08:08;;;;;;;15.57;6.43;;;;;;;24.19;nan;95391.81;5069665;28;20128;-82
2023/08/15 01:10:33;;;;;;;11.70;5.13;;;;;;;24.30;nan;95397.50;5070685;28;20043;-82
2023/08/15 01:13:51;;;;;;;11.25;5.25;;;;;;;24.50;nan;95442.47;5070991;28;20052;-81
2023/08/15 01:16:28;;;;;;;8.73;5.45;;;;;;;24.26;nan;95382.31;4973028;28;20120;-80
2023/08/15 01:19:23;;;;;;;12.25;5.03;;;;;;;24.27;nan;95403.63;4993099;28;20532;-80
2023/08/15 01:21:54;;;;;;;9.43;4.95;;;;;;;24.12;nan;95383.53;5057303;28;20588;-80
2023/08/15 01:24:19;;;;;;;10.77;5.25;;;;;;;23.94;nan;95354.50;5074942;28;20033;-80
2023/08/15 01:26:45;;;;;;;7.43;4.75;;;;;;;24.14;nan;95405.66;5076144;28;20063;-81
2023/08/15 01:29:10;;;;;;;13.30;5.30;;;;;;;23.94;nan;95376.97;5073685;28;20115;-80
2023/08/15 01:31:43;;;;;;;9.88;4.93;;;;;;;23.91;nan;95390.41;5075440;28;20036;-81
2023/08/15 01:34:36;;;;;;;9.63;4.55;;;;;;;24.09;nan;95388.91;5073597;28;20115;-80
2023/08/15 01:37:08;;;;;;;11.95;4.80;;;;;;;24.05;nan;95388.03;5073362;28;20433;-80
2023/08/15 01:39:37;;;;;;;14.80;5.03;;;;;;;23.40;nan;95276.72;5073611;28;20112;-81
2023/08/15 01:42:03;;;;;;;10.73;4.55;;;;;;;23.91;nan;95350.59;5073611;28;20039;-80
2023/08/15 01:44:30;;;;;;;8.18;4.82;;;;;;;23.78;nan;95327.47;5073910;28;20029;-81
2023/08/15 01:46:57;;;;;;;11.80;4.88;;;;;;;23.37;nan;95261.94;5075196;28;20119;-81
2023/08/15 01:49:22;;;;;;;8.80;4.90;;;;;;;23.92;nan;95341.31;5073204;28;20043;-81
2023/08/15 01:51:50;;;;;;;13.10;5.15;;;;;;;24.27;nan;95392.78;5074107;28;20032;-81
2023/08/15 01:54:15;;;;;;;12.23;5.15;;;;;;;24.50;nan;95411.84;5073603;28;20119;-81
2023/08/15 01:56:41;;;;;;;11.27;6.07;;;;;;;24.25;nan;95389.66;5074045;28;20467;-81
2023/08/15 01:59:06;;;;;;;14.27;6.20;;;;;;;24.03;nan;95366.69;5074934;28;20043;-81
2023/08/15 02:01:32;;;;;;;13.32;6.20;;;;;;;23.94;nan;95371.56;5075021;28;20499;-81
2023/08/15 02:03:57;;;;;;;16.48;6.55;;;;;;;23.99;nan;95362.34;5075490;28;20025;-81
2023/08/15 02:06:23;;;;;;;12.63;6.13;;;;;;;24.21;nan;95400.41;5074684;28;20482;-81
2023/08/15 02:08:48;;;;;;;16.05;6.60;;;;;;;23.99;nan;95356.94;5073561;28;20028;-82
2023/08/15 02:11:14;;;;;;;12.45;6.10;;;;;;;23.87;nan;95357.06;5074718;28;20064;-81
2023/08/15 02:13:39;;;;;;;8.52;5.00;;;;;;;24.16;nan;95405.31;5073100;28;20584;-81
2023/08/15 02:16:05;;;;;;;13.70;5.07;;;;;;;24.09;nan;95386.19;5073263;28;20511;-81
2023/08/15 02:18:31;;;;;;;14.32;5.53;;;;;;;23.89;nan;95371.03;5073278;28;20024;-81
2023/08/15 02:20:56;;;;;;;9.95;5.10;;;;;;;23.89;nan;95385.34;5073220;28;20040;-81
2023/08/15 02:23:22;;;;;;;11.80;5.72;;;;;;;24.02;nan;95403.09;5073208;28;20383;-81
2023/08/15 02:25:47;;;;;;;9.82;5.60;;;;;;;24.04;nan;95406.19;5074287;28;20032;-81
2023/08/15 02:28:13;;;;;;;10.02;5.20;;;;;;;24.06;nan;95401.22;5072105;28;20035;-81
2023/08/15 02:30:38;;;;;;;11.02;5.75;;;;;;;23.80;nan;95390.19;5074297;28;20040;-81
2023/08/15 02:33:08;;;;;;;9.32;5.47;;;;;;;23.43;nan;95347.16;5073243;28;20380;-81
2023/08/15 02:35:33;;;;;;;13.30;5.35;;;;;;;23.60;nan;95373.09;5073701;28;20144;-81
2023/08/15 02:37:59;;;;;;;13.70;5.88;;;;;;;23.18;nan;95310.59;5075108;28;20316;-81
2023/08/15 02:40:26;;;;;;;10.77;5.60;;;;;;;23.90;nan;95418.63;5075138;28;20047;-81
2023/08/15 02:42:52;;;;;;;11.88;5.43;;;;;;;23.67;nan;95383.31;5073211;28;20491;-81
2023/08/15 02:45:17;;;;;;;8.07;4.95;;;;;;;23.58;nan;95371.88;5073200;28;20040;-81
2023/08/15 02:47:44;;;;;;;10.43;5.32;;;;;;;23.94;nan;95411.41;5072863;28;20048;-81
2023/08/15 02:50:11;;;;;;;9.15;4.95;;;;;;;23.90;nan;95414.00;5073340;28;20028;-82
2023/08/15 02:52:36;;;;;;;8.50;5.00;;;;;;;23.93;nan;95401.69;5073766;28;20028;-81
2023/08/15 02:55:02;;;;;;;7.68;5.28;;;;;;;23.56;nan;95353.28;5073723;28;20039;-81
2023/08/15 02:57:27;;;;;;;16.17;5.20;;;;;;;23.21;nan;95299.06;5074844;28;20074;-81
2023/08/15 02:59:53;;;;;;;11.43;5.78;;;;;;;23.78;nan;95403.31;5074346;28;20137;-81
2023/08/15 03:02:18;;;;;;;11.32;5.57;;;;;;;23.11;nan;95301.53;5072579;28;20028;-81
2023/08/15 03:04:43;;;;;;;9.05;4.75;;;;;;;23.66;nan;95385.22;5073699;28;20032;-81
2023/08/15 03:07:09;;;;;;;9.00;4.95;;;;;;;23.56;nan;95363.31;5074396;28;20395;-81
2023/08/15 03:09:34;;;;;;;7.53;5.30;;;;;;;23.34;nan;95348.47;5072694;28;20086;-81
2023/08/15 03:12:00;;;;;;;8.50;4.72;;;;;;;22.78;nan;95274.84;5073446;28;20028;-81
2023/08/15 03:14:29;;;;;;;10.00;5.20;;;;;;;23.42;nan;95396.22;5074310;28;20028;-81
2023/08/15 03:16:54;;;;;;;10.35;5.38;;;;;;;22.71;nan;95275.41;5073751;28;20048;-81
2023/08/15 03:19:20;;;;;;;10.00;4.93;;;;;;;23.26;nan;95361.06;5072100;28;20562;-81
2023/08/15 03:21:45;;;;;;;11.50;5.65;;;;;;;23.44;nan;95397.44;5073820;28;20037;-81
2023/08/15 03:24:11;;;;;;;8.15;5.47;;;;;;;23.57;nan;95419.03;5072327;28;20028;-80
2023/08/15 03:26:36;;;;;;;10.25;5.22;;;;;;;23.25;nan;95339.75;5072290;28;20028;-81
2023/08/15 03:29:02;;;;;;;16.63;5.95;;;;;;;23.61;nan;95406.38;5074264;28;20363;-81
2023/08/15 03:31:29;;;;;;;14.57;5.82;;;;;;;23.11;nan;95323.19;5074136;28;20489;-80
2023/08/15 03:33:54;;;;;;;12.23;5.57;;;;;;;23.62;nan;95424.19;5071843;28;20021;-80
2023/08/15 03:36:20;;;;;;;18.30;6.05;;;;;;;23.60;nan;95421.81;5072324;28;20032;-80
2023/08/15 03:38:46;;;;;;;14.38;6.00;;;;;;;23.54;nan;95409.69;5072746;28;20032;-80
2023/08/15 03:41:11;;;;;;;15.90;6.35;;;;;;;23.18;nan;95339.56;5072469;28;20346;-80
2023/08/15 03:43:37;;;;;;;11.35;5.13;;;;;;;23.17;nan;95354.25;5070913;28;20066;-80
2023/08/15 03:46:04;;;;;;;10.77;5.43;;;;;;;23.60;nan;95418.31;5072763;28;20036;-80
2023/08/15 03:48:32;;;;;;;12.75;6.15;;;;;;;23.54;nan;95404.28;5072326;28;20469;-80
2023/08/15 03:51:00;;;;;;;9.30;5.68;;;;;;;23.32;nan;95386.72;5073374;28;20117;-81
2023/08/15 03:53:26;;;;;;;9.05;5.63;;;;;;;23.18;nan;95363.94;5071561;28;20037;-80
2023/08/15 03:55:52;;;;;;;15.48;6.20;;;;;;;23.35;nan;95401.44;5073872;28;20071;-80
2023/08/15 03:58:19;;;;;;;10.10;5.78;;;;;;;23.42;nan;95420.59;5071096;28;20043;-81
2023/08/15 04:00:46;;;;;;;10.35;5.35;;;;;;;22.69;nan;95291.97;5072581;28;20039;-80
2023/08/15 04:03:12;;;;;;;17.02;6.38;;;;;;;23.02;nan;95339.56;5070618;28;20029;-80
2023/08/15 04:05:37;;;;;;;9.95;5.15;;;;;;;23.28;nan;95366.09;5070732;28;20460;-80
2023/08/15 04:08:03;;;;;;;18.85;6.57;;;;;;;23.59;nan;95420.25;5071061;28;20025;-80
2023/08/15 04:10:29;;;;;;;13.18;5.93;;;;;;;23.23;nan;95377.19;5071183;28;20037;-80
2023/08/15 04:12:54;;;;;;;13.75;5.72;;;;;;;23.38;nan;95396.13;5070776;28;20079;-81
2023/08/15 04:15:20;;;;;;;11.60;5.80;;;;;;;23.62;nan;95424.97;5070341;28;20108;-81
2023/08/15 04:17:48;;;;;;;14.88;5.63;;;;;;;23.35;nan;95356.22;5054559;28;20044;-81
2023/08/15 04:20:13;;;;;;;11.90;5.85;;;;;;;23.64;nan;95417.28;5071100;28;20085;-80
2023/08/15 04:22:39;;;;;;;9.50;5.05;;;;;;;23.32;nan;95356.16;5071377;28;20032;-80
2023/08/15 04:25:09;;;;;;;10.90;6.13;;;;;;;23.42;nan;95364.50;5072471;28;20103;-80
2023/08/15 04:27:38;;;;;;;10.55;5.75;;;;;;;23.58;nan;95398.94;5071059;28;20552;-81
2023/08/15 04:30:06;;;;;;;18.27;5.72;;;;;;;23.54;nan;95384.53;5072999;28;20032;-80
2023/08/15 04:32:32;;;;;;;16.30;6.30;;;;;;;23.68;nan;95398.41;5072567;28;20766;-81
2023/08/15 04:34:57;;;;;;;9.18;5.18;;;;;;;23.89;nan;95427.91;5071222;28;20123;-80
2023/08/15 04:37:23;;;;;;;13.27;5.47;;;;;;;23.92;nan;95424.50;5071488;28;20029;-81
2023/08/15 04:39:48;;;;;;;13.15;5.65;;;;;;;23.71;nan;95401.22;5072111;28;20075;-80
2023/08/15 04:42:14;;;;;;;14.80;5.63;;;;;;;23.92;nan;95446.16;5072216;28;20499;-81
2023/08/15 04:44:39;;;;;;;10.50;5.00;;;;;;;23.66;nan;95404.16;5073851;28;20040;-81
2023/08/15 04:47:05;;;;;;;8.35;5.20;;;;;;;23.69;nan;95405.41;5073989;28;20020;-81
2023/08/15 04:49:30;;;;;;;9.32;4.80;;;;;;;23.79;nan;95404.88;5073771;28;20032;-81
2023/08/15 04:51:56;;;;;;;10.68;5.70;;;;;;;23.71;nan;95395.81;5073015;28;20453;-81
2023/08/15 04:54:21;;;;;;;10.63;5.15;;;;;;;23.73;nan;95414.38;5072212;28;20025;-81
2023/08/15 04:56:47;;;;;;;16.00;5.90;;;;;;;23.82;nan;95412.28;5073592;28;20041;-81
2023/08/15 04:59:12;;;;;;;10.23;5.32;;;;;;;23.96;nan;95436.97;5073880;28;20086;-81
2023/08/15 05:01:38;;;;;;;8.60;5.35;;;;;;;23.77;nan;95402.50;5072031;28;20043;-81
2023/08/15 05:04:03;;;;;;;13.13;5.70;;;;;;;24.14;nan;95462.56;5072608;28;20124;-81
2023/08/15 05:06:30;;;;;;;12.93;5.95;;;;;;;23.94;nan;95435.78;5072065;28;20138;-81
2023/08/15 05:08:55;;;;;;;12.18;5.45;;;;;;;23.77;nan;95407.94;5072853;28;20032;-81
2023/08/15 05:11:21;;;;;;;7.90;5.28;;;;;;;24.06;nan;95451.91;5072658;28;20127;-81
2023/08/15 05:13:46;;;;;;;16.65;5.13;;;;;;;24.06;nan;95460.81;5072635;28;20058;-81
2023/08/15 05:16:11;;;;;;;14.10;5.10;;;;;;;23.99;nan;95443.63;5073233;28;20442;-81
2023/08/15 05:18:37;;;;;;;11.65;5.72;;;;;;;23.86;nan;95426.69;5071657;28;20331;-81
2023/08/15 05:21:02;;;;;;;12.57;5.97;;;;;;;24.08;nan;95461.28;5071342;28;20034;-82
2023/08/15 05:23:28;;;;;;;17.73;5.72;;;;;;;24.11;nan;95465.19;5071883;28;20033;-81
2023/08/15 05:25:53;;;;;;;14.63;5.80;;;;;;;24.08;nan;95465.91;5072741;28;20443;-81
2023/08/15 05:28:18;;;;;;;13.50;5.63;;;;;;;24.12;nan;95493.84;5073852;28;20115;-81
2023/08/15 05:30:44;;;;;;;10.77;5.80;;;;;;;24.00;nan;95477.72;5073251;28;20049;-81
2023/08/15 05:33:09;;;;;;;10.98;6.22;;;;;;;23.64;nan;95422.72;5071896;28;20039;-81
2023/08/15 05:35:35;;;;;;;26.55;6.10;;;;;;;23.22;nan;95343.94;5072577;28;20071;-81
2023/08/15 05:38:00;;;;;;;16.02;6.47;;;;;;;24.01;nan;95458.41;5074096;28;20132;-81
2023/08/15 05:40:26;;;;;;;15.70;6.28;;;;;;;24.00;nan;95451.41;5072886;28;20044;-81
2023/08/15 05:42:52;;;;;;;11.95;5.30;;;;;;;23.84;nan;95450.63;5073031;28;20111;-81
2023/08/15 05:45:17;;;;;;;14.27;5.70;;;;;;;24.00;nan;95461.44;5072188;28;20064;-81
2023/08/15 05:47:43;;;;;;;13.15;5.30;;;;;;;23.52;nan;95382.19;5071485;28;20115;-81
2023/08/15 05:50:09;;;;;;;11.25;5.47;;;;;;;23.78;nan;95450.13;5073842;28;20051;-81
2023/08/15 05:52:34;;;;;;;13.95;5.18;;;;;;;23.41;nan;95381.91;5072828;28;20076;-81
2023/08/15 05:55:00;;;;;;;10.60;5.57;;;;;;;23.62;nan;95414.16;5071268;28;20037;-81
2023/08/15 05:57:25;;;;;;;9.85;5.25;;;;;;;23.65;nan;95434.31;5072053;28;20124;-81
2023/08/15 05:59:51;;;;;;;9.02;5.03;;;;;;;23.90;nan;95453.84;5071783;28;20064;-81
2023/08/15 06:02:18;;;;;;;8.55;5.40;;;;;;;23.66;nan;95433.94;5073348;28;20032;-81
2023/08/15 06:04:44;;;;;;;12.20;4.97;;;;;;;23.95;nan;95475.28;5076757;28;20028;-81
2023/08/15 06:07:12;;;;;;;12.25;5.15;;;;;;;23.76;nan;95457.81;5076309;28;20046;-81
2023/08/15 06:09:37;;;;;;;12.75;5.50;;;;;;;23.51;nan;95401.47;5076518;28;20102;-81
2023/08/15 06:12:04;;;;;;;9.57;5.13;;;;;;;23.86;nan;95470.03;5075513;28;20475;-81
2023/08/15 06:14:29;;;;;;;12.50;5.03;;;;;;;24.03;nan;95482.44;5075088;28;20040;-81
2023/08/15 06:16:55;;;;;;;11.23;5.43;;;;;;;23.91;nan;95460.84;5076171;28;20055;-81
2023/08/15 06:19:20;;;;;;;14.80;6.25;;;;;;;23.99;nan;95486.97;5075634;28;20086;-80
2023/08/15 06:21:45;;;;;;;13.88;5.47;;;;;;;23.89;nan;95485.56;5074904;28;20032;-81
2023/08/15 06:24:12;;;;;;;15.57;4.95;;;;;;;23.62;nan;95457.47;5075258;28;20121;-81
2023/08/15 06:26:38;;;;;;;15.30;5.15;;;;;;;23.81;nan;95500.06;5074005;28;20048;-81
2023/08/15 06:29:05;;;;;;;11.18;5.18;;;;;;;23.96;nan;95495.78;5073704;28;20051;-82
2023/08/15 06:31:34;;;;;;;11.85;4.95;;;;;;;23.74;nan;95457.34;5074466;28;20576;-81
2023/08/15 06:34:01;;;;;;;14.30;5.43;;;;;;;23.80;nan;95471.44;5075111;28;20550;-81
2023/08/15 06:36:27;;;;;;;12.10;5.63;;;;;;;23.57;nan;95433.38;5073356;28;20032;-81
2023/08/15 06:38:52;;;;;;;22.27;5.68;;;;;;;24.04;nan;95508.38;5074376;28;20066;-81
2023/08/15 06:41:18;;;;;;;7.40;5.30;;;;;;;23.99;nan;95506.72;5073947;28;20113;-81
2023/08/15 06:43:44;;;;;;;19.65;5.82;;;;;;;24.06;nan;95506.88;5075238;28;20032;-81
2023/08/15 06:46:13;;;;;;;12.45;5.50;;;;;;;23.89;nan;95465.81;5075452;28;20092;-81
2023/08/15 06:48:38;;;;;;;18.67;5.18;;;;;;;24.00;nan;95491.25;5073254;28;20502;-81
2023/08/15 06:51:04;;;;;;;14.73;5.78;;;;;;;23.90;nan;95464.69;5073980;28;20040;-81
2023/08/15 06:53:30;;;;;;;10.95;5.53;;;;;;;23.76;nan;95451.59;5074194;28;20036;-81
2023/08/15 06:55:56;;;;;;;10.23;5.20;;;;;;;24.13;nan;95507.03;5074282;28;20360;-81
2023/08/15 06:58:22;;;;;;;13.60;5.63;;;;;;;23.85;nan;95452.22;5072747;28;20035;-81
2023/08/15 07:00:48;;;;;;;13.93;5.65;;;;;;;24.17;nan;95507.94;5075235;28;20029;-81
2023/08/15 07:03:15;;;;;;;9.30;5.57;;;;;;;24.21;nan;95511.53;5074946;28;20033;-81
2023/08/15 07:05:41;;;;;;;9.63;5.35;;;;;;;24.13;nan;95504.34;5073808;28;20265;-82
2023/08/15 07:08:07;;;;;;;12.27;4.97;;;;;;;24.19;nan;95519.19;5073844;28;20032;-81
2023/08/15 07:10:36;;;;;;;15.45;6.03;;;;;;;23.95;nan;95469.84;5071224;28;20108;-81
2023/08/15 07:13:02;;;;;;;14.18;5.47;;;;;;;24.31;nan;95520.25;5072275;28;20036;-81
2023/08/15 07:15:28;;;;;;;8.85;4.93;;;;;;;23.59;nan;95414.84;5070867;28;20036;-81
2023/08/15 07:17:54;;;;;;;11.43;5.35;;;;;;;23.94;nan;95471.78;5071837;28;20093;-81
2023/08/15 07:20:19;;;;;;;17.73;5.53;;;;;;;23.84;nan;95450.63;5073344;28;20447;-81
2023/08/15 07:22:45;;;;;;;10.38;5.95;;;;;;;23.96;nan;95445.09;5072258;28;20063;-81
2023/08/15 07:25:11;;;;;;;16.80;6.53;;;;;;;24.38;nan;95515.78;5071820;28;20036;-81
2023/08/15 07:27:37;;;;;;;14.98;5.28;;;;;;;24.43;nan;95520.13;5071454;28;20035;-81
2023/08/15 07:30:06;;;;;;;17.05;5.78;;;;;;;24.17;nan;95461.88;5072980;28;20040;-81
2023/08/15 07:32:35;;;;;;;11.48;6.00;;;;;;;24.47;nan;95508.25;5073591;28;20035;-81
2023/08/15 07:35:00;;;;;;;21.23;7.32;;;;;;;24.46;nan;95516.72;5072200;28;20091;-82
2023/08/15 07:37:26;;;;;;;15.20;6.70;;;;;;;24.34;nan;95509.47;5071114;28;20647;-81
2023/08/15 07:40:00;;;;;;;13.40;5.70;;;;;;;24.12;nan;95464.03;5072779;28;20043;-81
2023/08/15 07:42:29;;;;;;;16.85;5.35;;;;;;;24.28;nan;95505.47;5071399;28;20442;-81
2023/08/15 07:44:54;;;;;;;9.93;5.10;;;;;;;24.17;nan;95497.09;5073002;28;20092;-81
2023/08/15 07:47:20;;;;;;;11.60;5.47;;;;;;;24.30;nan;95524.09;5072885;28;20158;-81
2023/08/15 07:49:45;;;;;;;9.63;5.32;;;;;;;24.32;nan;95522.63;5072576;28;20044;-81
2023/08/15 07:52:10;;;;;;;21.63;5.95;;;;;;;24.31;nan;95526.47;5071909;28;20033;-80
2023/08/15 07:54:36;;;;;;;14.30;4.93;;;;;;;24.18;nan;95509.47;5070985;28;20111;-81
2023/08/15 07:57:01;;;;;;;9.75;4.97;;;;;;;24.06;nan;95493.34;5071391;28;20043;-81
2023/08/15 07:59:27;;;;;;;15.95;5.80;;;;;;;24.01;nan;95466.53;5072675;28;20047;-81
2023/08/15 08:01:52;;;;;;;12.02;5.32;;;;;;;23.95;nan;95472.56;5072251;28;20038;-81
2023/08/15 08:04:21;;;;;;;12.73;5.55;;;;;;;24.22;nan;95517.72;5071241;28;20068;-81
2023/08/15 08:06:48;;;;;;;9.45;5.10;;;;;;;23.88;nan;95475.88;5071631;28;20028;-81
2023/08/15 08:09:13;;;;;;;13.15;5.53;;;;;;;23.84;nan;95483.91;5073289;28;20038;-81
2023/08/15 08:11:39;;;;;;;7.63;5.00;;;;;;;23.90;nan;95489.06;5071511;28;20036;-81
2023/08/15 08:14:04;;;;;;;9.82;4.78;;;;;;;24.07;nan;95513.88;5071779;28;20089;-82
2023/08/15 08:16:30;;;;;;;12.88;5.10;;;;;;;23.63;nan;95442.00;5071011;28;20177;-82
2023/08/15 08:18:56;;;;;;;11.48;5.38;;;;;;;23.67;nan;95505.13;5071889;28;20530;-82
2023/08/15 08:21:22;;;;;;;14.52;5.93;;;;;;;23.75;nan;95513.09;5071208;28;20501;-82
2023/08/15 08:23:47;;;;;;;9.05;5.68;;;;;;;23.74;nan;95518.84;5071419;28;20024;-82
2023/08/15 08:26:13;;;;;;;9.35;5.72;;;;;;;23.76;nan;95509.25;5071100;28;20040;-82
2023/08/15 08:28:38;;;;;;;13.35;6.03;;;;;;;23.43;nan;95443.78;5070709;28;20402;-82
2023/08/15 08:31:04;;;;;;;14.15;6.43;;;;;;;23.53;nan;95483.91;5071562;28;20112;-82
2023/08/15 08:33:29;;;;;;;11.13;5.55;;;;;;;23.46;nan;95483.69;5071308;28;20174;-82
2023/08/15 08:35:56;;;;;;;12.40;6.28;;;;;;;23.66;nan;95503.56;5073782;28;20120;-82
2023/08/15 08:38:21;;;;;;;12.65;6.03;;;;;;;23.27;nan;95460.00;5071276;28;20524;-82
2023/08/15 08:40:47;;;;;;;9.65;5.82;;;;;;;23.58;nan;95493.69;5071321;28;20044;-82
2023/08/15 08:43:15;;;;;;;14.63;6.80;;;;;;;23.55;nan;95495.19;5071798;28;20039;-82
2023/08/15 08:45:48;;;;;;;12.70;6.30;;;;;;;23.43;nan;95485.19;5074727;28;20116;-82
2023/08/15 08:48:16;;;;;;;11.25;6.38;;;;;;;23.39;nan;95492.44;5059584;28;20033;-82
2023/08/15 08:50:41;;;;;;;13.80;6.85;;;;;;;23.32;nan;95483.34;5078310;28;20044;-82
2023/08/15 08:53:07;;;;;;;14.75;5.85;;;;;;;23.00;nan;95437.28;5072922;28;20036;-82
2023/08/15 08:55:33;;;;;;;10.82;5.95;;;;;;;23.14;nan;95455.81;5071770;28;20036;-82
2023/08/15 08:58:04;;;;;;;18.75;6.30;;;;;;;23.21;nan;95491.16;5071316;28;20100;-82
2023/08/15 09:00:34;;;;;;;11.85;6.30;;;;;;;22.90;nan;95437.78;5073274;28;20033;-82
2023/08/15 09:03:17;;;;;;;23.98;6.55;;;;;;;23.18;nan;95450.50;5072826;28;20040;-82
2023/08/15 09:05:42;;;;;;;13.32;6.20;;;;;;;23.02;nan;95424.22;5071229;28;20046;-82
2023/08/15 09:08:08;;;;;;;11.65;6.32;;;;;;;23.52;nan;95484.25;5071203;28;20128;-82
2023/08/15 09:10:33;;;;;;;18.52;7.05;;;;;;;23.40;nan;95448.00;5070454;28;20033;-82
2023/08/15 09:13:00;;;;;;;16.25;7.38;;;;;;;23.64;nan;95470.66;5071640;28;20032;-81
2023/08/15 09:15:25;;;;;;;12.43;6.72;;;;;;;23.55;nan;95442.97;5070750;28;20093;-82
2023/08/15 09:18:00;;;;;;;19.70;7.20;;;;;;;23.57;nan;95455.03;5070591;28;20520;-82
2023/08/15 09:20:26;;;;;;;18.00;7.47;;;;;;;23.64;nan;95444.38;5072621;28;20028;-82
2023/08/15 09:22:56;;;;;;;11.32;6.85;;;;;;;23.47;nan;95412.19;5072878;28;20055;-82
2023/08/15 09:25:25;;;;;;;12.38;6.45;;;;;;;23.94;nan;95469.06;5070701;28;20064;-83
2023/08/15 09:27:50;;;;;;;14.30;6.38;;;;;;;24.07;nan;95486.78;5071145;28;20098;-82
2023/08/15 09:30:18;;;;;;;10.15;6.80;;;;;;;23.92;nan;95449.66;5071281;28;20454;-82
2023/08/15 09:32:45;;;;;;;10.93;6.00;;;;;;;24.17;nan;95482.75;5071782;28;20131;-82
2023/08/15 09:35:12;;;;;;;12.13;6.72;;;;;;;23.91;nan;95439.97;5071271;28;20429;-82
2023/08/15 09:37:41;;;;;;;13.70;6.10;;;;;;;23.84;nan;95446.00;5071571;28;20383;-82
2023/08/15 09:40:09;;;;;;;13.02;6.72;;;;;;;23.83;nan;95439.00;5073827;28;20044;-82
2023/08/15 09:42:35;;;;;;;12.85;6.68;;;;;;;24.21;nan;95479.00;5075133;28;20063;-82
2023/08/15 09:45:03;;;;;;;17.42;6.90;;;;;;;24.03;nan;95458.06;5072842;28;20032;-82
2023/08/15 09:47:28;;;;;;;19.33;6.72;;;;;;;24.02;nan;95459.97;5073495;28;20108;-82
2023/08/15 09:49:55;;;;;;;14.52;7.47;;;;;;;24.07;nan;95456.19;5074291;28;20036;-82
2023/08/15 09:52:21;;;;;;;16.05;6.80;;;;;;;23.98;nan;95442.84;5074935;28;20048;-82
2023/08/15 09:54:47;;;;;;;13.60;7.63;;;;;;;24.21;nan;95459.25;5074137;28;20039;-82
2023/08/15 09:57:13;;;;;;;12.25;6.78;;;;;;;24.16;nan;95445.97;5075686;28;20033;-82
2023/08/15 09:59:38;;;;;;;11.25;6.00;;;;;;;24.31;nan;95463.34;5076511;28;20123;-82
2023/08/15 10:02:08;;;;;;;13.40;7.68;;;;;;;24.26;nan;95445.41;5074538;28;20036;-82
2023/08/15 10:04:35;;;;;;;15.10;7.63;;;;;;;23.85;nan;95379.09;5075906;28;20029;-82
2023/08/15 10:07:01;;;;;;;18.02;7.82;;;;;;;24.49;nan;95461.78;5074021;28;20040;-82
2023/08/15 10:09:30;;;;;;;18.08;7.50;;;;;;;23.74;nan;95353.69;5074198;28;20128;-82
2023/08/15 10:11:58;;;;;;;19.30;7.38;;;;;;;24.00;nan;95389.09;5073869;28;20139;-82
2023/08/15 10:14:24;;;;;;;15.07;7.35;;;;;;;24.29;nan;95438.50;5074110;28;20046;-82
2023/08/15 10:16:49;;;;;;;20.65;7.32;;;;;;;24.38;nan;95485.19;5073095;28;20616;-82
2023/08/15 10:19:17;;;;;;;10.45;5.75;;;;;;;24.19;nan;95481.25;5075378;28;20036;-82
2023/08/15 10:21:50;;;;;;;11.65;5.30;;;;;;;24.21;nan;95476.28;5070927;28;20032;-82
2023/08/15 10:24:16;;;;;;;12.38;5.63;;;;;;;23.62;nan;95435.81;5075863;28;20392;-82
2023/08/15 10:26:45;;;;;;;10.30;4.93;;;;;;;23.62;nan;95456.69;5072884;28;20097;-82
2023/08/15 10:29:12;;;;;;;12.73;5.43;;;;;;;23.56;nan;95437.22;5075307;28;20036;-82
2023/08/15 10:31:39;;;;;;;12.20;5.35;;;;;;;24.00;nan;95477.72;5073758;28;21055;-81
2023/08/15 10:34:08;;;;;;;8.98;5.70;;;;;;;24.03;nan;95466.19;5072722;28;20037;-81
2023/08/15 10:36:34;;;;;;;11.45;5.22;;;;;;;23.68;nan;95423.56;5073227;28;20100;-81
2023/08/15 10:39:07;;;;;;;11.52;5.70;;;;;;;23.89;nan;95450.34;5075129;28;20142;-81
2023/08/15 10:41:37;;;;;;;15.88;5.90;;;;;;;23.99;nan;95457.16;5075356;28;20108;-81
2023/08/15 10:44:07;;;;;;;10.37;4.93;;;;;;;24.19;nan;95486.66;5073592;28;20040;-81
2023/08/15 10:46:35;;;;;;;12.80;5.68;;;;;;;24.01;nan;95458.41;5073262;28;20751;-81
2023/08/15 10:49:06;;;;;;;9.38;5.40;;;;;;;23.83;nan;95405.72;5072346;28;20036;-81
2023/08/15 10:51:33;;;;;;;;;;;;;;;24.42;nan;95483.31;5075309;28;20103;-81
2023/08/15 10:54:10;;;;;;;8.70;5.40;;;;;;;24.11;nan;95443.50;5073748;28;19963;-81
2023/08/15 10:56:37;;;;;;;15.75;6.30;;;;;;;24.15;nan;95438.97;5074506;28;20032;-81
2023/08/15 10:59:04;;;;;;;10.80;5.97;;;;;;;24.48;nan;95485.44;5074857;28;20068;-81
2023/08/15 11:01:31;;;;;;;13.43;5.65;;;;;;;24.49;nan;95484.25;5073454;28;20048;-81
2023/08/15 11:03:57;;;;;;;13.45;5.95;;;;;;;24.13;nan;95414.13;5074898;28;20042;-81
2023/08/15 11:06:24;;;;;;;11.68;4.95;;;;;;;24.42;nan;95459.72;5053354;28;20120;-81
2023/08/15 11:08:55;;;;;;;16.30;5.80;;;;;;;24.42;nan;95431.81;5073884;28;20037;-81
2023/08/15 11:11:21;;;;;;;9.82;5.38;;;;;;;24.57;nan;95460.78;5072975;28;20028;-81
2023/08/15 11:13:47;;;;;;;13.27;4.72;;;;;;;24.67;nan;95487.34;5073837;28;20040;-81
2023/08/15 11:16:18;;;;;;;13.35;5.25;;;;;;;24.23;nan;95414.41;5072631;28;20055;-81
2023/08/15 11:18:45;;;;;;;11.50;5.47;;;;;;;24.47;nan;95478.44;5073575;28;20044;-81
2023/08/15 11:21:13;;;;;;;9.52;5.78;;;;;;;24.71;nan;95476.59;5074680;28;20427;-81
2023/08/15 11:23:39;;;;;;;9.05;5.60;;;;;;;24.63;nan;95488.44;5071859;28;20037;-81
2023/08/15 11:26:10;;;;;;;10.88;5.30;;;;;;;24.60;nan;95479.88;5071901;28;20407;-81
2023/08/15 11:28:36;;;;;;;13.18;5.13;;;;;;;24.46;nan;95470.66;5072931;28;20452;-81
2023/08/15 11:31:06;;;;;;;14.98;5.60;;;;;;;24.51;nan;95464.94;5071524;28;20037;-81
2023/08/15 11:33:32;;;;;;;10.15;4.95;;;;;;;24.49;nan;95446.31;5073735;28;20032;-81
2023/08/15 11:36:10;;;;;;;18.67;6.53;;;;;;;24.33;nan;95415.00;5072215;28;20150;-81
2023/08/15 11:38:38;;;;;;;13.02;6.35;;;;;;;24.87;nan;95483.50;5073599;28;20032;-81
2023/08/15 11:41:05;;;;;;;11.82;5.18;;;;;;;24.38;nan;95437.19;5072151;28;20047;-81